sensor_id;sensor_type;location;lat;lon;timestamp;P1;durP1;ratioP1;P2;durP2;ratioP2
23171;SDS011;11754;42.664;23.594;2022-12-08T00:01:20;28.27;;;16.67;;
23171;SDS011;11754;42.664;23.594;2022-12-08T00:03:47;31.10;;;17.20;;
23171;SDS011;11754;42.664;23.594;2022-12-08T00:09:26;28.30;;;16.05;;
23171;SDS011;11754;42.664;23.594;2022-12-08T00:12:01;29.08;;;15.18;;
23171;SDS011;11754;42.664;23.594;2022-12-08T00:17:07;30.90;;;16.13;;
23171;SDS011;11754;42.664;23.594;2022-12-08T00:19:34;28.60;;;15.90;;
23171;SDS011;11754;42.664;23.594;2022-12-08T00:21:59;28.52;;;15.70;;
23171;SDS011;11754;42.664;23.594;2022-12-08T00:24:28;31.58;;;16.70;;
23171;SDS011;11754;42.664;23.594;2022-12-08T00:26:55;29.65;;;17.38;;
23171;SDS011;11754;42.664;23.594;2022-12-08T00:29:20;27.23;;;15.40;;
23171;SDS011;11754;42.664;23.594;2022-12-08T00:31:46;31.23;;;16.15;;
23171;SDS011;11754;42.664;23.594;2022-12-08T00:34:12;28.98;;;17.77;;
23171;SDS011;11754;42.664;23.594;2022-12-08T00:36:38;29.83;;;17.38;;
23171;SDS011;11754;42.664;23.594;2022-12-08T00:39:04;32.75;;;18.70;;
23171;SDS011;11754;42.664;23.594;2022-12-08T00:41:30;34.95;;;20.00;;
23171;SDS011;11754;42.664;23.594;2022-12-08T00:44:14;39.22;;;21.75;;
23171;SDS011;11754;42.664;23.594;2022-12-08T00:46:43;36.70;;;20.52;;
23171;SDS011;11754;42.664;23.594;2022-12-08T00:49:09;32.60;;;20.08;;
23171;SDS011;11754;42.664;23.594;2022-12-08T00:51:35;31.48;;;19.02;;
23171;SDS011;11754;42.664;23.594;2022-12-08T00:54:01;27.83;;;16.63;;
23171;SDS011;11754;42.664;23.594;2022-12-08T00:56:27;25.10;;;13.55;;
23171;SDS011;11754;42.664;23.594;2022-12-08T00:58:53;25.80;;;14.85;;
23171;SDS011;11754;42.664;23.594;2022-12-08T01:01:18;25.23;;;14.65;;
23171;SDS011;11754;42.664;23.594;2022-12-08T01:03:44;25.63;;;15.50;;
23171;SDS011;11754;42.664;23.594;2022-12-08T01:06:09;30.33;;;15.77;;
23171;SDS011;11754;42.664;23.594;2022-12-08T01:08:35;29.95;;;17.35;;
23171;SDS011;11754;42.664;23.594;2022-12-08T01:11:11;31.33;;;17.50;;
23171;SDS011;11754;42.664;23.594;2022-12-08T01:13:38;31.05;;;17.60;;
23171;SDS011;11754;42.664;23.594;2022-12-08T01:16:04;36.95;;;18.90;;
23171;SDS011;11754;42.664;23.594;2022-12-08T01:18:30;36.53;;;19.27;;
23171;SDS011;11754;42.664;23.594;2022-12-08T01:21:00;32.33;;;19.15;;
23171;SDS011;11754;42.664;23.594;2022-12-08T01:23:27;30.55;;;18.25;;
23171;SDS011;11754;42.664;23.594;2022-12-08T01:25:53;32.58;;;19.05;;
23171;SDS011;11754;42.664;23.594;2022-12-08T01:28:18;34.70;;;19.13;;
23171;SDS011;11754;42.664;23.594;2022-12-08T01:30:43;33.28;;;19.27;;
23171;SDS011;11754;42.664;23.594;2022-12-08T01:33:09;41.45;;;22.50;;
23171;SDS011;11754;42.664;23.594;2022-12-08T01:35:34;37.63;;;21.90;;
23171;SDS011;11754;42.664;23.594;2022-12-08T01:37:59;33.30;;;20.02;;
23171;SDS011;11754;42.664;23.594;2022-12-08T01:40:25;40.20;;;20.83;;
23171;SDS011;11754;42.664;23.594;2022-12-08T01:42:50;37.75;;;19.95;;
23171;SDS011;11754;42.664;23.594;2022-12-08T01:45:30;43.38;;;20.73;;
23171;SDS011;11754;42.664;23.594;2022-12-08T01:48:00;40.75;;;23.10;;
23171;SDS011;11754;42.664;23.594;2022-12-08T01:50:29;40.03;;;20.25;;
23171;SDS011;11754;42.664;23.594;2022-12-08T01:52:58;41.88;;;21.42;;
23171;SDS011;11754;42.664;23.594;2022-12-08T01:58:31;36.95;;;21.08;;
23171;SDS011;11754;42.664;23.594;2022-12-08T02:01:00;41.47;;;21.88;;
23171;SDS011;11754;42.664;23.594;2022-12-08T02:03:30;38.10;;;21.60;;
23171;SDS011;11754;42.664;23.594;2022-12-08T02:06:00;37.65;;;21.35;;
23171;SDS011;11754;42.664;23.594;2022-12-08T02:08:26;40.47;;;21.80;;
23171;SDS011;11754;42.664;23.594;2022-12-08T02:10:53;38.95;;;21.42;;
23171;SDS011;11754;42.664;23.594;2022-12-08T02:13:18;38.10;;;21.08;;
23171;SDS011;11754;42.664;23.594;2022-12-08T02:20:48;47.75;;;23.85;;
23171;SDS011;11754;42.664;23.594;2022-12-08T02:23:32;43.60;;;23.38;;
23171;SDS011;11754;42.664;23.594;2022-12-08T02:37:15;48.72;;;23.90;;
23171;SDS011;11754;42.664;23.594;2022-12-08T02:42:31;44.78;;;23.30;;
23171;SDS011;11754;42.664;23.594;2022-12-08T02:47:48;48.40;;;24.80;;
23171;SDS011;11754;42.664;23.594;2022-12-08T02:50:15;45.80;;;26.08;;
23171;SDS011;11754;42.664;23.594;2022-12-08T02:52:44;45.80;;;25.95;;
23171;SDS011;11754;42.664;23.594;2022-12-08T02:55:36;53.00;;;28.35;;
23171;SDS011;11754;42.664;23.594;2022-12-08T03:03:29;61.22;;;32.25;;
23171;SDS011;11754;42.664;23.594;2022-12-08T03:06:22;53.28;;;28.92;;
23171;SDS011;11754;42.664;23.594;2022-12-08T03:08:57;55.55;;;28.70;;
23171;SDS011;11754;42.664;23.594;2022-12-08T03:13:59;49.78;;;28.33;;
23171;SDS011;11754;42.664;23.594;2022-12-08T03:16:28;59.90;;;28.95;;
23171;SDS011;11754;42.664;23.594;2022-12-08T03:18:57;57.50;;;28.80;;
23171;SDS011;11754;42.664;23.594;2022-12-08T03:21:29;51.53;;;29.17;;
23171;SDS011;11754;42.664;23.594;2022-12-08T03:23:57;53.17;;;26.30;;
23171;SDS011;11754;42.664;23.594;2022-12-08T03:26:37;47.65;;;26.27;;
23171;SDS011;11754;42.664;23.594;2022-12-08T03:29:09;50.22;;;26.63;;
23171;SDS011;11754;42.664;23.594;2022-12-08T03:31:37;53.05;;;27.55;;
23171;SDS011;11754;42.664;23.594;2022-12-08T03:34:05;50.95;;;27.70;;
23171;SDS011;11754;42.664;23.594;2022-12-08T03:36:32;45.95;;;26.85;;
23171;SDS011;11754;42.664;23.594;2022-12-08T03:38:58;43.88;;;25.92;;
23171;SDS011;11754;42.664;23.594;2022-12-08T03:41:23;49.72;;;26.02;;
23171;SDS011;11754;42.664;23.594;2022-12-08T03:43:50;50.17;;;24.48;;
23171;SDS011;11754;42.664;23.594;2022-12-08T03:46:18;45.40;;;25.25;;
23171;SDS011;11754;42.664;23.594;2022-12-08T03:48:44;51.03;;;26.98;;
23171;SDS011;11754;42.664;23.594;2022-12-08T03:51:09;58.95;;;29.70;;
23171;SDS011;11754;42.664;23.594;2022-12-08T03:53:35;53.03;;;27.50;;
23171;SDS011;11754;42.664;23.594;2022-12-08T03:56:05;46.38;;;25.52;;
23171;SDS011;11754;42.664;23.594;2022-12-08T03:58:37;49.63;;;25.77;;
23171;SDS011;11754;42.664;23.594;2022-12-08T04:01:03;43.55;;;22.58;;
23171;SDS011;11754;42.664;23.594;2022-12-08T04:03:28;42.92;;;23.15;;
23171;SDS011;11754;42.664;23.594;2022-12-08T04:05:53;66.32;;;34.92;;
23171;SDS011;11754;42.664;23.594;2022-12-08T04:08:19;70.82;;;35.38;;
23171;SDS011;11754;42.664;23.594;2022-12-08T04:10:44;58.67;;;31.45;;
23171;SDS011;11754;42.664;23.594;2022-12-08T04:13:09;52.30;;;28.08;;
23171;SDS011;11754;42.664;23.594;2022-12-08T04:15:35;55.17;;;27.95;;
23171;SDS011;11754;42.664;23.594;2022-12-08T04:18:00;50.50;;;28.13;;
23171;SDS011;11754;42.664;23.594;2022-12-08T04:20:26;60.20;;;30.42;;
23171;SDS011;11754;42.664;23.594;2022-12-08T04:22:51;63.63;;;31.65;;
23171;SDS011;11754;42.664;23.594;2022-12-08T04:25:16;61.22;;;30.98;;
23171;SDS011;11754;42.664;23.594;2022-12-08T04:27:42;66.55;;;33.20;;
23171;SDS011;11754;42.664;23.594;2022-12-08T04:30:07;67.72;;;33.35;;
23171;SDS011;11754;42.664;23.594;2022-12-08T04:32:33;68.22;;;33.15;;
23171;SDS011;11754;42.664;23.594;2022-12-08T04:34:58;73.35;;;36.92;;
23171;SDS011;11754;42.664;23.594;2022-12-08T04:37:23;100.35;;;52.50;;
23171;SDS011;11754;42.664;23.594;2022-12-08T04:39:49;91.47;;;47.58;;
23171;SDS011;11754;42.664;23.594;2022-12-08T04:42:14;80.68;;;45.63;;
23171;SDS011;11754;42.664;23.594;2022-12-08T04:44:39;81.82;;;44.80;;
23171;SDS011;11754;42.664;23.594;2022-12-08T04:47:05;84.32;;;47.78;;
23171;SDS011;11754;42.664;23.594;2022-12-08T04:49:30;63.95;;;34.45;;
23171;SDS011;11754;42.664;23.594;2022-12-08T04:51:55;63.95;;;34.85;;
23171;SDS011;11754;42.664;23.594;2022-12-08T04:54:21;71.32;;;39.55;;
23171;SDS011;11754;42.664;23.594;2022-12-08T04:56:46;51.63;;;31.33;;
23171;SDS011;11754;42.664;23.594;2022-12-08T04:59:12;35.78;;;21.90;;
23171;SDS011;11754;42.664;23.594;2022-12-08T05:01:37;38.28;;;22.67;;
23171;SDS011;11754;42.664;23.594;2022-12-08T05:04:02;37.42;;;22.77;;
23171;SDS011;11754;42.664;23.594;2022-12-08T05:06:28;39.20;;;22.88;;
23171;SDS011;11754;42.664;23.594;2022-12-08T05:08:53;30.70;;;18.50;;
23171;SDS011;11754;42.664;23.594;2022-12-08T05:11:18;32.35;;;19.42;;
23171;SDS011;11754;42.664;23.594;2022-12-08T05:13:44;45.15;;;23.92;;
23171;SDS011;11754;42.664;23.594;2022-12-08T05:16:13;39.63;;;23.00;;
23171;SDS011;11754;42.664;23.594;2022-12-08T05:18:39;50.65;;;28.85;;
23171;SDS011;11754;42.664;23.594;2022-12-08T05:21:06;41.78;;;24.40;;
23171;SDS011;11754;42.664;23.594;2022-12-08T05:23:32;49.42;;;26.30;;
23171;SDS011;11754;42.664;23.594;2022-12-08T05:25:58;96.03;;;50.92;;
23171;SDS011;11754;42.664;23.594;2022-12-08T05:28:24;93.85;;;51.55;;
23171;SDS011;11754;42.664;23.594;2022-12-08T05:30:50;112.05;;;53.78;;
23171;SDS011;11754;42.664;23.594;2022-12-08T05:33:16;340.63;;;158.50;;
23171;SDS011;11754;42.664;23.594;2022-12-08T05:35:41;130.68;;;64.32;;
23171;SDS011;11754;42.664;23.594;2022-12-08T05:38:07;107.70;;;54.45;;
23171;SDS011;11754;42.664;23.594;2022-12-08T05:40:32;105.03;;;55.20;;
23171;SDS011;11754;42.664;23.594;2022-12-08T05:42:57;98.45;;;52.97;;
23171;SDS011;11754;42.664;23.594;2022-12-08T05:45:23;92.55;;;48.75;;
23171;SDS011;11754;42.664;23.594;2022-12-08T05:47:48;73.85;;;37.78;;
23171;SDS011;11754;42.664;23.594;2022-12-08T05:50:13;59.53;;;33.03;;
23171;SDS011;11754;42.664;23.594;2022-12-08T05:52:39;56.65;;;31.88;;
23171;SDS011;11754;42.664;23.594;2022-12-08T05:55:04;52.22;;;29.73;;
23171;SDS011;11754;42.664;23.594;2022-12-08T05:57:30;44.63;;;25.10;;
23171;SDS011;11754;42.664;23.594;2022-12-08T05:59:56;40.13;;;24.85;;
23171;SDS011;11754;42.664;23.594;2022-12-08T06:02:23;55.63;;;33.13;;
23171;SDS011;11754;42.664;23.594;2022-12-08T06:04:49;42.67;;;25.85;;
23171;SDS011;11754;42.664;23.594;2022-12-08T06:07:14;43.47;;;23.88;;
23171;SDS011;11754;42.664;23.594;2022-12-08T06:09:39;42.03;;;24.00;;
23171;SDS011;11754;42.664;23.594;2022-12-08T06:12:05;39.65;;;22.30;;
23171;SDS011;11754;42.664;23.594;2022-12-08T06:14:31;50.20;;;25.52;;
23171;SDS011;11754;42.664;23.594;2022-12-08T06:16:56;52.45;;;31.17;;
23171;SDS011;11754;42.664;23.594;2022-12-08T06:19:21;55.38;;;28.02;;
23171;SDS011;11754;42.664;23.594;2022-12-08T06:21:47;58.90;;;30.17;;
23171;SDS011;11754;42.664;23.594;2022-12-08T06:24:12;57.00;;;32.92;;
23171;SDS011;11754;42.664;23.594;2022-12-08T06:26:38;49.75;;;28.15;;
23171;SDS011;11754;42.664;23.594;2022-12-08T06:29:05;32.72;;;20.55;;
23171;SDS011;11754;42.664;23.594;2022-12-08T06:31:31;33.30;;;19.52;;
23171;SDS011;11754;42.664;23.594;2022-12-08T06:33:56;33.50;;;18.88;;
23171;SDS011;11754;42.664;23.594;2022-12-08T06:36:23;28.30;;;17.45;;
23171;SDS011;11754;42.664;23.594;2022-12-08T06:38:50;38.13;;;18.38;;
23171;SDS011;11754;42.664;23.594;2022-12-08T06:41:16;31.60;;;16.95;;
23171;SDS011;11754;42.664;23.594;2022-12-08T06:43:41;32.63;;;16.33;;
23171;SDS011;11754;42.664;23.594;2022-12-08T06:46:08;29.70;;;16.27;;
23171;SDS011;11754;42.664;23.594;2022-12-08T06:48:36;27.42;;;17.80;;
23171;SDS011;11754;42.664;23.594;2022-12-08T06:51:07;59.35;;;32.30;;
23171;SDS011;11754;42.664;23.594;2022-12-08T06:53:34;54.17;;;31.38;;
23171;SDS011;11754;42.664;23.594;2022-12-08T06:56:00;47.28;;;27.17;;
23171;SDS011;11754;42.664;23.594;2022-12-08T06:58:25;42.88;;;21.58;;
23171;SDS011;11754;42.664;23.594;2022-12-08T07:00:51;35.85;;;20.90;;
23171;SDS011;11754;42.664;23.594;2022-12-08T07:03:16;38.38;;;24.15;;
23171;SDS011;11754;42.664;23.594;2022-12-08T07:05:41;34.50;;;21.38;;
23171;SDS011;11754;42.664;23.594;2022-12-08T07:08:07;51.97;;;23.08;;
23171;SDS011;11754;42.664;23.594;2022-12-08T07:10:33;68.75;;;22.45;;
23171;SDS011;11754;42.664;23.594;2022-12-08T07:12:58;54.78;;;23.90;;
23171;SDS011;11754;42.664;23.594;2022-12-08T07:15:24;57.72;;;27.08;;
23171;SDS011;11754;42.664;23.594;2022-12-08T07:17:50;45.20;;;24.15;;
23171;SDS011;11754;42.664;23.594;2022-12-08T07:20:15;37.97;;;23.00;;
23171;SDS011;11754;42.664;23.594;2022-12-08T07:22:41;53.50;;;25.60;;
23171;SDS011;11754;42.664;23.594;2022-12-08T07:25:12;44.10;;;24.30;;
23171;SDS011;11754;42.664;23.594;2022-12-08T07:27:37;54.30;;;27.40;;
23171;SDS011;11754;42.664;23.594;2022-12-08T07:30:03;62.40;;;29.98;;
23171;SDS011;11754;42.664;23.594;2022-12-08T07:32:28;64.07;;;32.78;;
23171;SDS011;11754;42.664;23.594;2022-12-08T07:34:54;50.17;;;27.83;;
23171;SDS011;11754;42.664;23.594;2022-12-08T07:37:19;36.33;;;22.10;;
23171;SDS011;11754;42.664;23.594;2022-12-08T07:39:45;36.00;;;23.05;;
23171;SDS011;11754;42.664;23.594;2022-12-08T07:42:10;34.45;;;21.55;;
23171;SDS011;11754;42.664;23.594;2022-12-08T07:44:35;44.13;;;27.55;;
23171;SDS011;11754;42.664;23.594;2022-12-08T07:47:01;51.35;;;35.25;;
23171;SDS011;11754;42.664;23.594;2022-12-08T07:49:26;70.68;;;47.15;;
23171;SDS011;11754;42.664;23.594;2022-12-08T07:51:51;48.60;;;31.80;;
23171;SDS011;11754;42.664;23.594;2022-12-08T07:54:17;26.23;;;16.60;;
23171;SDS011;11754;42.664;23.594;2022-12-08T07:56:42;25.58;;;16.17;;
23171;SDS011;11754;42.664;23.594;2022-12-08T07:59:08;27.13;;;17.38;;
23171;SDS011;11754;42.664;23.594;2022-12-08T08:01:33;29.15;;;17.80;;
23171;SDS011;11754;42.664;23.594;2022-12-08T08:04:00;66.45;;;35.85;;
23171;SDS011;11754;42.664;23.594;2022-12-08T08:06:28;34.55;;;18.45;;
23171;SDS011;11754;42.664;23.594;2022-12-08T08:08:54;30.63;;;18.10;;
23171;SDS011;11754;42.664;23.594;2022-12-08T08:11:19;30.20;;;19.35;;
23171;SDS011;11754;42.664;23.594;2022-12-08T08:13:45;37.67;;;18.92;;
23171;SDS011;11754;42.664;23.594;2022-12-08T08:16:10;20.90;;;16.00;;
23171;SDS011;11754;42.664;23.594;2022-12-08T08:18:37;25.95;;;16.83;;
23171;SDS011;11754;42.664;23.594;2022-12-08T08:21:04;20.17;;;13.80;;
23171;SDS011;11754;42.664;23.594;2022-12-08T08:23:30;22.33;;;14.18;;
23171;SDS011;11754;42.664;23.594;2022-12-08T08:25:59;26.85;;;14.68;;
23171;SDS011;11754;42.664;23.594;2022-12-08T08:28:26;24.08;;;17.38;;
23171;SDS011;11754;42.664;23.594;2022-12-08T08:30:52;21.95;;;15.40;;
23171;SDS011;11754;42.664;23.594;2022-12-08T08:33:17;20.98;;;14.48;;
23171;SDS011;11754;42.664;23.594;2022-12-08T08:35:43;18.52;;;13.93;;
23171;SDS011;11754;42.664;23.594;2022-12-08T08:38:08;23.52;;;14.38;;
23171;SDS011;11754;42.664;23.594;2022-12-08T08:40:34;29.25;;;17.98;;
23171;SDS011;11754;42.664;23.594;2022-12-08T08:43:00;46.97;;;22.42;;
23171;SDS011;11754;42.664;23.594;2022-12-08T08:45:26;71.13;;;25.15;;
23171;SDS011;11754;42.664;23.594;2022-12-08T08:47:52;34.75;;;17.08;;
23171;SDS011;11754;42.664;23.594;2022-12-08T08:50:17;36.58;;;17.25;;
23171;SDS011;11754;42.664;23.594;2022-12-08T08:52:43;42.40;;;16.30;;
23171;SDS011;11754;42.664;23.594;2022-12-08T08:55:09;57.15;;;18.17;;
23171;SDS011;11754;42.664;23.594;2022-12-08T08:57:34;47.92;;;24.83;;
23171;SDS011;11754;42.664;23.594;2022-12-08T09:00:00;44.97;;;26.10;;
23171;SDS011;11754;42.664;23.594;2022-12-08T09:02:26;33.70;;;19.27;;
23171;SDS011;11754;42.664;23.594;2022-12-08T09:04:51;26.95;;;14.23;;
23171;SDS011;11754;42.664;23.594;2022-12-08T09:07:17;27.02;;;14.18;;
23171;SDS011;11754;42.664;23.594;2022-12-08T09:09:42;30.45;;;16.65;;
23171;SDS011;11754;42.664;23.594;2022-12-08T09:12:08;24.10;;;14.65;;
23171;SDS011;11754;42.664;23.594;2022-12-08T09:14:34;28.55;;;18.90;;
23171;SDS011;11754;42.664;23.594;2022-12-08T09:17:00;20.38;;;14.57;;
23171;SDS011;11754;42.664;23.594;2022-12-08T09:19:25;22.48;;;13.68;;
23171;SDS011;11754;42.664;23.594;2022-12-08T09:21:50;22.77;;;14.10;;
23171;SDS011;11754;42.664;23.594;2022-12-08T09:24:16;16.70;;;11.30;;
23171;SDS011;11754;42.664;23.594;2022-12-08T09:26:42;18.83;;;11.95;;
23171;SDS011;11754;42.664;23.594;2022-12-08T09:29:09;20.85;;;12.25;;
23171;SDS011;11754;42.664;23.594;2022-12-08T09:31:35;25.77;;;17.33;;
23171;SDS011;11754;42.664;23.594;2022-12-08T09:34:01;37.72;;;23.33;;
23171;SDS011;11754;42.664;23.594;2022-12-08T09:36:28;24.15;;;15.77;;
23171;SDS011;11754;42.664;23.594;2022-12-08T09:38:54;36.33;;;20.80;;
23171;SDS011;11754;42.664;23.594;2022-12-08T09:41:33;26.42;;;18.08;;
23171;SDS011;11754;42.664;23.594;2022-12-08T09:47:02;32.42;;;18.27;;
23171;SDS011;11754;42.664;23.594;2022-12-08T09:49:35;30.50;;;18.98;;
23171;SDS011;11754;42.664;23.594;2022-12-08T10:14:46;25.63;;;17.08;;
23171;SDS011;11754;42.664;23.594;2022-12-08T10:17:26;27.77;;;17.50;;
23171;SDS011;11754;42.664;23.594;2022-12-08T10:19:57;28.80;;;17.00;;
23171;SDS011;11754;42.664;23.594;2022-12-08T10:22:34;25.30;;;17.33;;
23171;SDS011;11754;42.664;23.594;2022-12-08T10:25:00;27.85;;;18.48;;
23171;SDS011;11754;42.664;23.594;2022-12-08T10:27:32;37.67;;;21.55;;
23171;SDS011;11754;42.664;23.594;2022-12-08T10:29:59;21.67;;;15.30;;
23171;SDS011;11754;42.664;23.594;2022-12-08T10:32:26;18.35;;;13.90;;
23171;SDS011;11754;42.664;23.594;2022-12-08T10:35:08;15.48;;;12.50;;
23171;SDS011;11754;42.664;23.594;2022-12-08T10:37:36;18.83;;;13.43;;
23171;SDS011;11754;42.664;23.594;2022-12-08T10:40:12;19.13;;;11.57;;
23171;SDS011;11754;42.664;23.594;2022-12-08T10:42:50;16.15;;;12.45;;
23171;SDS011;11754;42.664;23.594;2022-12-08T10:47:57;20.35;;;12.13;;
23171;SDS011;11754;42.664;23.594;2022-12-08T10:55:41;15.38;;;11.77;;
23171;SDS011;11754;42.664;23.594;2022-12-08T10:58:23;16.90;;;13.63;;
23171;SDS011;11754;42.664;23.594;2022-12-08T11:03:51;24.35;;;15.05;;
23171;SDS011;11754;42.664;23.594;2022-12-08T11:06:20;24.58;;;15.90;;
23171;SDS011;11754;42.664;23.594;2022-12-08T11:08:54;18.33;;;13.68;;
23171;SDS011;11754;42.664;23.594;2022-12-08T11:11:22;19.50;;;13.20;;
23171;SDS011;11754;42.664;23.594;2022-12-08T11:14:06;17.10;;;12.43;;
23171;SDS011;11754;42.664;23.594;2022-12-08T11:16:32;24.02;;;16.38;;
23171;SDS011;11754;42.664;23.594;2022-12-08T11:19:00;15.77;;;12.70;;
23171;SDS011;11754;42.664;23.594;2022-12-08T11:21:35;19.05;;;13.05;;
23171;SDS011;11754;42.664;23.594;2022-12-08T11:27:02;22.10;;;15.77;;
23171;SDS011;11754;42.664;23.594;2022-12-08T11:29:30;40.63;;;27.77;;
23171;SDS011;11754;42.664;23.594;2022-12-08T11:31:58;21.98;;;15.68;;
23171;SDS011;11754;42.664;23.594;2022-12-08T11:36:59;19.33;;;14.15;;
23171;SDS011;11754;42.664;23.594;2022-12-08T11:39:26;20.00;;;12.85;;
23171;SDS011;11754;42.664;23.594;2022-12-08T11:41:56;19.63;;;13.68;;
23171;SDS011;11754;42.664;23.594;2022-12-08T11:47:30;22.15;;;18.40;;
23171;SDS011;11754;42.664;23.594;2022-12-08T11:50:19;20.30;;;12.85;;
23171;SDS011;11754;42.664;23.594;2022-12-08T11:52:51;19.77;;;12.70;;
23171;SDS011;11754;42.664;23.594;2022-12-08T11:55:28;26.27;;;15.77;;
23171;SDS011;11754;42.664;23.594;2022-12-08T11:57:56;26.70;;;16.05;;
23171;SDS011;11754;42.664;23.594;2022-12-08T12:00:26;14.98;;;11.30;;
23171;SDS011;11754;42.664;23.594;2022-12-08T12:02:59;19.20;;;12.63;;
23171;SDS011;11754;42.664;23.594;2022-12-08T12:05:34;38.90;;;29.17;;
23171;SDS011;11754;42.664;23.594;2022-12-08T12:08:08;26.03;;;17.77;;
23171;SDS011;11754;42.664;23.594;2022-12-08T12:17:06;21.40;;;15.10;;
23171;SDS011;11754;42.664;23.594;2022-12-08T12:19:49;26.70;;;15.30;;
23171;SDS011;11754;42.664;23.594;2022-12-08T12:22:16;21.75;;;14.35;;
23171;SDS011;11754;42.664;23.594;2022-12-08T12:24:46;21.40;;;12.73;;
23171;SDS011;11754;42.664;23.594;2022-12-08T12:32:57;25.45;;;14.95;;
23171;SDS011;11754;42.664;23.594;2022-12-08T12:38:07;25.33;;;14.98;;
23171;SDS011;11754;42.664;23.594;2022-12-08T12:41:02;36.75;;;16.33;;
23171;SDS011;11754;42.664;23.594;2022-12-08T12:43:32;29.23;;;15.25;;
23171;SDS011;11754;42.664;23.594;2022-12-08T12:48:50;23.45;;;15.45;;
23171;SDS011;11754;42.664;23.594;2022-12-08T12:51:41;22.13;;;15.98;;
23171;SDS011;11754;42.664;23.594;2022-12-08T12:54:19;23.40;;;14.00;;
23171;SDS011;11754;42.664;23.594;2022-12-08T12:56:53;26.10;;;15.23;;
23171;SDS011;11754;42.664;23.594;2022-12-08T13:02:18;31.15;;;19.33;;
23171;SDS011;11754;42.664;23.594;2022-12-08T13:07:41;11.48;;;7.68;;
23171;SDS011;11754;42.664;23.594;2022-12-08T13:10:20;10.25;;;6.40;;
23171;SDS011;11754;42.664;23.594;2022-12-08T13:18:27;13.18;;;7.18;;
23171;SDS011;11754;42.664;23.594;2022-12-08T13:21:04;11.13;;;7.40;;
23171;SDS011;11754;42.664;23.594;2022-12-08T13:36:54;10.32;;;6.50;;
23171;SDS011;11754;42.664;23.594;2022-12-08T13:42:10;13.82;;;7.18;;
23171;SDS011;11754;42.664;23.594;2022-12-08T13:44:49;20.20;;;12.38;;
23171;SDS011;11754;42.664;23.594;2022-12-08T13:47:21;25.92;;;15.05;;
23171;SDS011;11754;42.664;23.594;2022-12-08T13:55:36;13.80;;;9.00;;
23171;SDS011;11754;42.664;23.594;2022-12-08T13:58:06;14.18;;;9.52;;
23171;SDS011;11754;42.664;23.594;2022-12-08T14:03:26;9.88;;;6.82;;
23171;SDS011;11754;42.664;23.594;2022-12-08T14:05:52;16.77;;;12.57;;
23171;SDS011;11754;42.664;23.594;2022-12-08T14:08:37;12.02;;;6.53;;
23171;SDS011;11754;42.664;23.594;2022-12-08T14:11:03;11.18;;;5.88;;
23171;SDS011;11754;42.664;23.594;2022-12-08T14:13:30;11.65;;;7.30;;
23171;SDS011;11754;42.664;23.594;2022-12-08T14:15:57;21.77;;;13.10;;
23171;SDS011;11754;42.664;23.594;2022-12-08T14:18:27;27.02;;;16.30;;
23171;SDS011;11754;42.664;23.594;2022-12-08T14:21:10;28.10;;;15.93;;
23171;SDS011;11754;42.664;23.594;2022-12-08T14:23:37;30.85;;;18.40;;
23171;SDS011;11754;42.664;23.594;2022-12-08T14:26:03;12.23;;;7.03;;
23171;SDS011;11754;42.664;23.594;2022-12-08T14:28:30;11.32;;;7.20;;
23171;SDS011;11754;42.664;23.594;2022-12-08T14:30:57;14.50;;;7.50;;
23171;SDS011;11754;42.664;23.594;2022-12-08T14:33:23;18.27;;;8.60;;
23171;SDS011;11754;42.664;23.594;2022-12-08T14:35:50;13.40;;;6.75;;
23171;SDS011;11754;42.664;23.594;2022-12-08T14:38:18;14.90;;;6.75;;
23171;SDS011;11754;42.664;23.594;2022-12-08T14:41:04;26.42;;;11.75;;
23171;SDS011;11754;42.664;23.594;2022-12-08T14:43:31;31.25;;;17.38;;
23171;SDS011;11754;42.664;23.594;2022-12-08T14:46:04;50.45;;;27.65;;
23171;SDS011;11754;42.664;23.594;2022-12-08T14:48:44;46.90;;;27.45;;
23171;SDS011;11754;42.664;23.594;2022-12-08T14:56:30;19.08;;;10.60;;
23171;SDS011;11754;42.664;23.594;2022-12-08T15:01:33;21.60;;;12.77;;
23171;SDS011;11754;42.664;23.594;2022-12-08T15:04:13;17.02;;;10.63;;
23171;SDS011;11754;42.664;23.594;2022-12-08T15:09:38;11.52;;;8.00;;
23171;SDS011;11754;42.664;23.594;2022-12-08T15:12:25;10.45;;;7.22;;
23171;SDS011;11754;42.664;23.594;2022-12-08T15:20:04;36.53;;;21.67;;
23171;SDS011;11754;42.664;23.594;2022-12-08T15:22:31;54.58;;;31.42;;
23171;SDS011;11754;42.664;23.594;2022-12-08T15:24:57;38.20;;;24.15;;
23171;SDS011;11754;42.664;23.594;2022-12-08T15:27:23;77.50;;;43.85;;
23171;SDS011;11754;42.664;23.594;2022-12-08T15:29:49;51.35;;;32.78;;
23171;SDS011;11754;42.664;23.594;2022-12-08T15:32:16;55.20;;;32.15;;
23171;SDS011;11754;42.664;23.594;2022-12-08T15:34:44;50.40;;;29.08;;
23171;SDS011;11754;42.664;23.594;2022-12-08T15:37:23;41.33;;;23.83;;
23171;SDS011;11754;42.664;23.594;2022-12-08T15:39:50;33.70;;;20.95;;
23171;SDS011;11754;42.664;23.594;2022-12-08T15:42:16;67.57;;;42.08;;
23171;SDS011;11754;42.664;23.594;2022-12-08T15:44:42;40.08;;;21.65;;
23171;SDS011;11754;42.664;23.594;2022-12-08T15:47:18;41.15;;;25.80;;
23171;SDS011;11754;42.664;23.594;2022-12-08T15:49:46;27.40;;;16.60;;
23171;SDS011;11754;42.664;23.594;2022-12-08T15:52:15;40.47;;;23.88;;
23171;SDS011;11754;42.664;23.594;2022-12-08T15:54:42;53.60;;;27.60;;
23171;SDS011;11754;42.664;23.594;2022-12-08T15:59:47;38.78;;;18.60;;
23171;SDS011;11754;42.664;23.594;2022-12-08T16:02:13;34.67;;;18.10;;
23171;SDS011;11754;42.664;23.594;2022-12-08T16:04:39;21.65;;;11.13;;
23171;SDS011;11754;42.664;23.594;2022-12-08T16:07:05;18.17;;;12.32;;
23171;SDS011;11754;42.664;23.594;2022-12-08T16:09:39;13.90;;;7.97;;
23171;SDS011;11754;42.664;23.594;2022-12-08T16:15:17;35.95;;;18.73;;
23171;SDS011;11754;42.664;23.594;2022-12-08T16:17:42;36.25;;;19.90;;
23171;SDS011;11754;42.664;23.594;2022-12-08T16:20:14;21.58;;;12.15;;
23171;SDS011;11754;42.664;23.594;2022-12-08T16:22:42;15.70;;;9.43;;
23171;SDS011;11754;42.664;23.594;2022-12-08T16:25:08;21.27;;;13.23;;
23171;SDS011;11754;42.664;23.594;2022-12-08T16:27:35;41.75;;;24.73;;
23171;SDS011;11754;42.664;23.594;2022-12-08T16:30:02;27.10;;;16.42;;
23171;SDS011;11754;42.664;23.594;2022-12-08T16:32:29;39.97;;;24.95;;
23171;SDS011;11754;42.664;23.594;2022-12-08T16:34:55;43.35;;;26.60;;
23171;SDS011;11754;42.664;23.594;2022-12-08T16:37:21;41.35;;;21.35;;
23171;SDS011;11754;42.664;23.594;2022-12-08T16:39:48;31.92;;;19.27;;
23171;SDS011;11754;42.664;23.594;2022-12-08T16:42:19;19.02;;;10.38;;
23171;SDS011;11754;42.664;23.594;2022-12-08T16:47:33;16.60;;;10.52;;
23171;SDS011;11754;42.664;23.594;2022-12-08T16:49:58;13.38;;;8.38;;
23171;SDS011;11754;42.664;23.594;2022-12-08T16:52:24;18.02;;;10.90;;
23171;SDS011;11754;42.664;23.594;2022-12-08T16:54:49;21.10;;;12.18;;
23171;SDS011;11754;42.664;23.594;2022-12-08T16:57:15;30.58;;;19.92;;